createdAt,value
2023-01-04T06:50:12.495Z,98209.84
2023-01-04T06:55:07.024Z,98203.56
2023-01-04T07:00:00.381Z,98196.69
2023-01-04T07:04:53.776Z,98204.44
2023-01-04T07:09:48.539Z,98214.38
2023-01-04T07:14:41.944Z,98214.38
2023-01-04T07:19:35.323Z,98216.94
2023-01-04T07:24:30.525Z,98208.47
2023-01-04T07:29:25.522Z,98198.22
2023-01-04T07:45:59.109Z,98203.44
2023-01-04T07:56:04.818Z,98212.78
2023-01-04T08:01:08.618Z,98203.78
2023-01-04T08:06:05.568Z,98206.06
2023-01-04T08:11:03.133Z,98199.81
2023-01-04T08:15:58.149Z,98202.75
2023-01-04T08:20:58.225Z,98204.66
2023-01-04T08:25:51.944Z,98214.22
2023-01-04T08:42:31.218Z,98224.88
2023-01-04T09:02:56.660Z,98229.00
2023-01-04T09:07:50.199Z,98228.78
2023-01-04T09:18:29.266Z,98219.41
2023-01-04T09:28:14.316Z,98209.56
2023-01-04T09:55:37.394Z,98226.09
2023-01-04T10:00:43.959Z,98211.22
2023-01-04T10:05:37.689Z,98209.44
2023-01-04T10:10:59.398Z,98194.00
2023-01-04T10:16:09.105Z,98195.44
2023-01-04T10:21:39.105Z,98184.16
2023-01-04T10:45:20.881Z,98150.25
2023-01-04T10:50:25.731Z,98147.16
2023-01-04T10:55:29.101Z,98140.94
2023-01-04T11:00:31.115Z,98151.56
2023-01-04T11:05:31.639Z,98138.44
2023-01-04T11:10:31.711Z,98146.91
2023-01-04T11:15:26.541Z,98150.84
2023-01-04T11:20:26.472Z,98143.53
2023-01-04T11:25:35.166Z,98156.50
2023-01-04T11:30:47.877Z,98150.16
2023-01-04T11:35:45.610Z,98127.31
2023-01-04T11:40:39.407Z,98113.34
2023-01-04T11:45:34.231Z,98104.88
2023-01-04T11:50:42.522Z,98098.88
2023-01-04T11:55:36.230Z,98102.53
2023-01-04T12:00:29.735Z,98089.84
2023-01-04T12:05:30.173Z,98104.09
2023-01-04T12:10:27.848Z,98108.19
2023-01-04T12:15:35.710Z,98109.09
2023-01-04T12:20:31.708Z,98114.97
2023-01-04T12:25:39.776Z,98109.72
2023-01-04T12:30:41.912Z,98088.44
2023-01-04T12:36:06.753Z,98068.59
2023-01-04T12:41:00.223Z,98066.81
2023-01-04T12:47:00.905Z,98058.97
2023-01-04T12:53:10.670Z,98049.06
2023-01-04T12:57:55.056Z,98049.03
2023-01-04T13:03:10.000Z,98049.03
2023-01-04T13:08:12.664Z,98029.63
2023-01-04T13:13:31.591Z,98025.31
2023-01-04T13:18:44.571Z,98050.94
2023-01-04T13:23:40.798Z,98032.94
2023-01-04T13:28:36.156Z,98033.03
2023-01-04T13:33:29.703Z,98040.97
2023-01-04T13:38:23.576Z,98029.50
2023-01-04T13:43:57.779Z,98009.19
2023-01-04T13:48:59.413Z,97998.75
2023-01-04T13:53:56.023Z,97988.81
2023-01-04T13:58:51.674Z,97992.41
2023-01-04T14:03:48.728Z,97987.97
2023-01-04T14:08:49.084Z,97984.22
2023-01-04T14:13:48.219Z,97981.59
2023-01-04T14:18:43.037Z,98006.44
2023-01-04T14:23:38.813Z,98014.66
2023-01-04T14:33:58.860Z,98023.94
2023-01-04T14:39:25.142Z,98030.81
2023-01-04T14:44:25.400Z,98032.72
2023-01-04T14:49:22.018Z,98019.16
2023-01-04T14:54:23.892Z,98014.50
2023-01-04T14:59:18.244Z,98010.72
2023-01-04T15:04:11.697Z,98006.91
2023-01-04T15:09:06.677Z,98019.44
2023-01-04T15:14:00.050Z,98005.25
2023-01-04T15:18:53.450Z,98020.03
2023-01-04T15:23:46.797Z,98014.88
2023-01-04T15:28:41.581Z,98012.03
2023-01-04T15:33:35.730Z,98001.91
2023-01-04T15:38:29.260Z,98008.84
2023-01-04T15:43:22.763Z,98010.88
2023-01-04T15:48:18.103Z,97986.41
2023-01-04T15:53:11.768Z,97989.44
2023-01-04T15:58:16.463Z,97996.66
2023-01-04T16:03:09.843Z,98006.59
2023-01-04T16:08:04.781Z,98003.97
2023-01-04T16:12:58.199Z,97992.47
2023-01-04T16:17:51.734Z,97996.53
2023-01-04T16:22:45.260Z,97985.69
2023-01-04T16:27:40.171Z,97979.34
2023-01-04T16:32:51.325Z,97988.13
2023-01-04T16:37:44.725Z,97972.63
2023-01-04T16:42:43.143Z,97961.22
2023-01-04T16:47:42.003Z,97965.72
2023-01-04T16:52:35.362Z,97972.75
2023-01-04T19:07:51.498Z,97896.06
2023-01-04T19:12:44.989Z,97891.06
2023-01-04T20:18:40.260Z,97901.59
2023-01-04T20:23:33.649Z,97892.81
2023-01-04T20:28:27.008Z,97883.25
2023-01-04T20:33:20.399Z,97896.44
2023-01-04T20:38:15.181Z,97883.66
2023-01-04T20:43:25.996Z,97896.34
2023-01-04T20:48:19.499Z,97892.69
2023-01-04T22:09:22.730Z,97863.22
2023-01-04T22:14:18.679Z,97847.41
2023-01-04T22:19:26.050Z,97852.19
2023-01-04T22:44:32.900Z,97856.44
2023-01-04T22:49:58.593Z,97864.88
2023-01-04T22:54:51.916Z,97854.44
2023-01-04T22:59:46.696Z,97843.31
2023-01-04T23:04:40.306Z,97842.38
2023-01-04T23:09:34.027Z,97837.84
2023-01-04T23:14:27.390Z,97848.06
2023-01-04T23:19:22.110Z,97847.72
2023-01-04T23:24:16.825Z,97839.69
2023-01-04T23:29:11.575Z,97824.16
2023-01-04T23:34:07.538Z,97817.22
2023-01-04T23:39:07.598Z,97796.75
2023-01-04T23:44:00.976Z,97770.78
2023-01-04T23:48:54.364Z,97769.91
2023-01-04T23:53:47.703Z,97749.69
2023-01-04T23:58:42.919Z,97763.72
